Flight Track Log - Related Links

Times and Time Zones

All times are in EDT time to prevent confusion due to time zone crossing. See the N911PJ flight status page for this flight to view local times or setup timezone preferences in your user account.

Time Position Orientation Groundspeed Altitude Reporting Facility
EDT Latitude Longitude Course Direction KTS MPH feet Rate Location/Type
Sat 06:26:36 PM 39.1333 -108.5500 293° West 142 163 5,900  Level Denver TRACON
Sat 06:27:30 PM 39.1500 -108.6000 293° West 162 186 7,400 1,667 Climbing Denver TRACON
Sat 06:28:24 PM 39.1667 -108.6333 303° West 181 208 8,900 1,756 Climbing Denver TRACON
Sat 06:29:33 PM 39.2089 -108.5847 42° Northeast 160 184 11,000 1,786 Climbing Denver Center
Sat 06:30:35 PM 39.2442 -108.5492 38° Northeast 162 186 12,800 1,610 Climbing Denver Center
Sat 06:31:36 PM 39.2850 -108.5036 41° Northeast 181 208 14,300 1,610 Climbing Denver Center
Sat 06:32:38 PM 39.3275 -108.4592 39° Northeast 195 224 16,100 1,659 Climbing Denver Center
Sat 06:33:39 PM 39.3700 -108.4167 38° Northeast 193 222 17,700 1,463 Climbing Denver Center
Sat 06:34:41 PM 39.4142 -108.3706 39° Northeast 196 226 19,100 1,317 Climbing Denver Center
Sat 06:35:42 PM 39.4594 -108.3250 38° Northeast 197 227 20,400 1,171 Climbing Denver Center
Sat 06:36:44 PM 39.5047 -108.2822 36° Northeast 211 243 21,500 1,111 Climbing Denver Center
Sat 06:37:57 PM 39.5556 -108.2264 40° Northeast 214 246 22,900 1,200 Climbing Denver Center
Sat 06:38:59 PM 39.6036 -108.1672 43° Northeast 211 243 24,200 1,210 Climbing Denver Center
Sat 06:40:01 PM 39.6578 -108.1081 40° Northeast 227 261 25,400 1,024 Climbing Denver Center
Sat 06:41:02 PM 39.7056 -108.0600 38° Northeast 228 262 26,300 732 Climbing Denver Center
Sat 06:42:04 PM 39.7625 -108.0003 39° Northeast 238 274 26,900 341 Climbing Denver Center
Sat 06:43:05 PM 39.8169 -107.9447 38° Northeast 260 299 27,000 49 Climbing Denver Center
Sat 06:44:07 PM 39.8750 -107.8839 39° Northeast 277 319 27,000 49 Level Denver Center
Sat 06:45:08 PM 39.9422 -107.8108 40° Northeast 283 326 27,100  Climbing Denver Center
Sat 06:46:10 PM 40.0006 -107.7458 40° Northeast 287 330 27,000 -49 Descending Denver Center
Sat 06:47:11 PM 40.0661 -107.6669 43° Northeast 288 331 27,000  Level Denver Center
Sat 06:48:13 PM 40.1258 -107.6053 38° Northeast 287 330 27,000  Level Denver Center
Sat 06:49:14 PM 40.1978 -107.5378 36° Northeast 285 328 27,000  Level Denver Center
Sat 06:50:15 PM 40.2478 -107.4883 37° Northeast 282 325 27,000  Level Denver Center
Sat 06:51:17 PM 40.3064 -107.4264 39° Northeast 284 327 27,000  Level Denver Center
Sat 06:52:19 PM 40.3858 -107.3417 39° Northeast 287 330 27,000  Level Denver Center
Sat 06:53:20 PM 40.4464 -107.2806 38° Northeast 287 330 27,000  Level Denver Center
Sat 06:54:22 PM 40.5119 -107.2064 41° Northeast 289 333 27,000  Level Denver Center
Sat 06:55:23 PM 40.5681 -107.1406 42° Northeast 290 334 27,000 49 Level Denver Center
Sat 06:56:25 PM 40.6289 -107.0700 41° Northeast 290 334 27,100  Climbing Denver Center
Sat 06:57:26 PM 40.6911 -107.0033 39° Northeast 288 331 27,000 -49 Descending Denver Center
Sat 06:58:28 PM 40.7647 -106.9231 40° Northeast 286 329 27,000  Level Denver Center
Sat 06:59:29 PM 40.8228 -106.8594 40° Northeast 285 328 27,000  Level Denver Center
Sat 07:00:31 PM 40.8811 -106.7942 40° Northeast 287 330 27,000  Level Denver Center
Sat 07:01:32 PM 40.9508 -106.7206 39° Northeast 287 330 27,000  Level Denver Center
Sat 07:02:33 PM 41.0111 -106.6544 40° Northeast 292 336 27,000 -49 Level Denver Center
Sat 07:03:35 PM 41.0803 -106.5811 39° Northeast 288 331 26,900  Descending Denver Center
Sat 07:04:36 PM 41.1392 -106.5161 40° Northeast 290 334 27,000  Climbing Denver Center
Sat 07:05:38 PM 41.1972 -106.4494 41° Northeast 290 334 26,900  Descending Denver Center
Sat 07:06:39 PM 41.2661 -106.3722 40° Northeast 289 333 27,000 98 Climbing Denver Center
Sat 07:07:41 PM 41.3317 -106.2986 40° Northeast 289 333 27,100  Climbing Denver Center
Sat 07:08:42 PM 41.3878 -106.2281 43° Northeast 287 330 27,000 -49 Descending Denver Center
Sat 07:09:44 PM 41.4489 -106.1597 40° Northeast 293 337 27,000  Level Denver Center
Sat 07:10:45 PM 41.5172 -106.0828 40° Northeast 290 334 27,000  Level Denver Center
Sat 07:11:47 PM 41.5747 -106.0181 40° Northeast 285 328 27,000  Level Denver Center
Sat 07:12:48 PM 41.6436 -105.9439 39° Northeast 282 325 27,000  Level Denver Center
Sat 07:13:50 PM 41.7028 -105.8764 40° Northeast 290 334 27,000  Level Denver Center
Sat 07:14:51 PM 41.7575 -105.8081 43° Northeast 282 325 27,000  Level Denver Center
Sat 07:15:53 PM 41.8233 -105.7311 41° Northeast 281 323 27,000  Level Denver Center
Sat 07:16:54 PM 41.8803 -105.6597 43° Northeast 289 333 27,000  Level Denver Center
Sat 07:17:56 PM 41.9469 -105.5869 39° Northeast 276 318 27,000  Level Denver Center
Sat 07:18:57 PM 42.0056 -105.5217 40° Northeast 281 323 27,000 49 Level Denver Center
Sat 07:19:58 PM 42.0664 -105.4592 37° Northeast 283 326 27,100  Climbing Denver Center
Sat 07:21:00 PM 42.1336 -105.3831 40° Northeast 281 323 27,000 -49 Descending Denver Center
Sat 07:22:01 PM 42.1894 -105.3136 43° Northeast 284 327 27,000  Level Denver Center
Sat 07:23:03 PM 42.2547 -105.2322 43° Northeast 286 329 27,000  Level Denver Center
Sat 07:24:04 PM 42.3128 -105.1664 40° Northeast 282 325 27,000  Level Denver Center
Sat 07:25:05 PM 42.3719 -105.1028 38° Northeast 282 325 27,000  Level Denver Center
Sat 07:26:07 PM 42.4383 -105.0272 40° Northeast 278 320 27,000 49 Level Denver Center
Sat 07:27:08 PM 42.4936 -104.9561 43° Northeast 283 326 27,100  Climbing Denver Center
Sat 07:28:10 PM 42.5589 -104.8733 43° Northeast 286 329 27,000 -49 Descending Denver Center
Sat 07:29:11 PM 42.6181 -104.8083 39° Northeast 284 327 27,000  Level Denver Center
Sat 07:30:12 PM 42.6669 -104.7525 40° Northeast 284 327 27,000  Level Denver Center
Sat 07:31:14 PM 42.7433 -104.6583 42° Northeast 286 329 27,000  Level Denver Center
Sat 07:32:16 PM 42.7992 -104.5864 43° Northeast 286 329 27,000  Level Denver Center
Sat 07:33:17 PM 42.8564 -104.5164 42° Northeast 287 330 27,000  Level Denver Center
Sat 07:34:19 PM 42.9250 -104.4403 39° Northeast 285 328 27,000  Level Denver Center
Sat 07:35:20 PM 42.9822 -104.3722 41° Northeast 284 327 27,000 -49 Level Denver Center
Sat 07:36:22 PM 43.0469 -104.2869 44° Northeast 287 330 26,900 -390 Descending Denver Center
Sat 07:37:23 PM 43.1047 -104.2164 42° Northeast 289 333 26,200 -927 Descending Denver Center
Sat 07:38:25 PM 43.1694 -104.1461 38° Northeast 300 345 25,000 -1,317 Descending Denver Center
Sat 07:39:26 PM 43.2417 -104.0633 40° Northeast 303 349 23,500 -1,366 Descending Denver Center
Sat 07:40:28 PM 43.3008 -103.9881 43° Northeast 303 349 22,200 -1,415 Descending Denver Center
Sat 07:41:29 PM 43.3683 -103.9000 43° Northeast 301 346 20,600 -1,409 Descending Denver Center
Sat 07:42:23 PM 43.4208 -103.8344 42° Northeast 300 345 19,500 -1,438 Descending Denver Center
Sat 07:43:30 PM 43.4897 -103.7519 41° Northeast 296 341 17,700 -1,594 Descending Denver Center
Sat 07:44:31 PM 43.5550 -103.6731 41° Northeast 295 339 16,100 -1,835 Descending Denver Center
Sat 07:45:31 PM 43.6106 -103.6025 43° Northeast 288 331 14,000 -1,952 Descending Denver Center
Sat 07:46:37 PM 43.6647 -103.5258 46° Northeast 259 298 12,000 -1,795 Descending Denver Center
Sat 07:47:38 PM 43.7075 -103.4669 45° Northeast 239 275 10,200 -1,033 Descending Denver Center
Sat 07:48:39 PM 43.7514 -103.4147 41° Northeast 208 239 9,900 -541 Descending Denver Center
Sat 07:49:40 PM 43.7997 -103.3517 43° Northeast 228 262 9,100 -744 Descending Denver Center
Sat 07:50:40 PM 43.8567 -103.3211 21° North 230 265 8,400 -793 Descending Denver Center
Sat 07:51:41 PM 43.9183 -103.2922 19° North 225 259 7,500 -931 Descending Denver Center
Sat 07:52:36 PM 43.9678 -103.2961 357° North 210 242 6,600 -1,140 Descending Denver Center
Sat 07:53:42 PM 44.0164 -103.2356 42° Northeast 216 249 5,200 -843 Descending Denver Center
Sat 07:54:37 PM 44.0283 -103.1703 76° East 198 228 4,900 -470 Descending Denver Center
Sat 07:55:37 PM 44.0300 -103.0961 88° East 192 221 4,300 -567 Descending Denver Center
Sat 07:56:44 PM 44.0078 -103.0464 122° Southeast 143 165 3,700 -537 Descending Denver Center
Sat 07:58:00 PM 44.0333 -103.0500 North  Level FlightAware Approximate
Sat 08:05:00 PM 44.0453 -103.0574 North  Level Estimated

Login

Don't have an account? Register now (free) for customized features, flight alerts, and more!